Terminal Aerodrome Forecast
Issued by NWS Tampa Bay Area, FL

Home | Current Version | Previous Version | Text Only | Print | Product List | Glossary On
Versions: 1 2 3 4 5 6 7 8 9 10 11 12
000
FTUS42 KTBW 222300
TAFSRQ
TAF
KSRQ 222325Z 2300/2324 35006KT P6SM BKN250
     FM230200 04007KT P6SM SCT250
     FM231500 07011KT P6SM FEW250
     FM232200 06008KT P6SM FEW250=

USA.gov is the U.S. government's official web portal to all federal, state and local government web resources and services.